createdAt,value
2019-02-26T00:00:12.781Z,0
2019-02-26T00:01:33.299Z,0
2019-02-26T00:02:46.488Z,0
2019-02-26T00:03:56.645Z,0
2019-02-26T00:05:10.715Z,0
2019-02-26T00:06:30.180Z,0
2019-02-26T00:07:41.471Z,0
2019-02-26T00:09:03.765Z,0
2019-02-26T00:10:14.677Z,0
2019-02-26T00:11:28.936Z,0
2019-02-26T00:12:42.850Z,0
2019-02-26T00:13:58.952Z,0
2019-02-26T00:15:11.890Z,0
2019-02-26T00:16:27.186Z,0
2019-02-26T00:17:45.747Z,0
2019-02-26T00:19:02.564Z,0
2019-02-26T00:20:20.099Z,0
2019-02-26T00:21:35.907Z,0
2019-02-26T00:22:48.389Z,0
2019-02-26T00:24:00.331Z,0
2019-02-26T00:25:22.022Z,0
2019-02-26T00:26:33.944Z,0
2019-02-26T00:27:44.453Z,0
2019-02-26T00:28:56.744Z,0
2019-02-26T00:30:08.986Z,0
2019-02-26T00:31:23.811Z,0
2019-02-26T00:32:40.462Z,0
2019-02-26T00:33:50.466Z,0
2019-02-26T00:35:06.723Z,0
2019-02-26T00:36:21.895Z,0
2019-02-26T00:37:35.574Z,0
2019-02-26T00:38:50.997Z,0
2019-02-26T00:40:03.611Z,0
2019-02-26T00:41:15.571Z,0
2019-02-26T00:42:38.289Z,0
2019-02-26T00:43:51.164Z,0
2019-02-26T00:45:10.332Z,0
2019-02-26T00:46:24.068Z,0
2019-02-26T00:47:46.125Z,0
2019-02-26T00:48:57.073Z,0
2019-02-26T00:50:14.180Z,0
2019-02-26T00:51:31.724Z,0
2019-02-26T00:52:46.206Z,0
2019-02-26T00:54:06.409Z,0
2019-02-26T00:55:18.478Z,0
2019-02-26T00:56:39.322Z,0
2019-02-26T00:57:52.507Z,0
2019-02-26T00:59:02.214Z,0
2019-02-26T01:00:16.834Z,0
2019-02-26T01:01:30.991Z,0
2019-02-26T01:02:40.928Z,0
2019-02-26T01:03:56.739Z,0
2019-02-26T01:05:09.085Z,0
2019-02-26T01:06:22.075Z,0
2019-02-26T01:07:37.027Z,0
2019-02-26T01:08:51.898Z,0
2019-02-26T01:10:06.332Z,0
2019-02-26T01:11:19.408Z,0
2019-02-26T01:12:32.618Z,0
2019-02-26T01:13:42.735Z,0
2019-02-26T01:14:57.187Z,0
2019-02-26T01:16:07.134Z,0
2019-02-26T01:17:23.495Z,0
2019-02-26T01:18:36.178Z,0
2019-02-26T01:19:50.003Z,0
2019-02-26T01:21:06.770Z,0
2019-02-26T01:22:16.701Z,0
2019-02-26T01:23:33.789Z,0
2019-02-26T01:24:43.488Z,0
2019-02-26T01:25:56.665Z,0
2019-02-26T01:27:06.354Z,0
2019-02-26T01:28:24.743Z,0
2019-02-26T01:29:39.283Z,0
2019-02-26T01:30:55.760Z,0
2019-02-26T01:32:09.462Z,0
2019-02-26T01:33:22.282Z,0
2019-02-26T01:34:32.899Z,0
2019-02-26T01:35:44.565Z,0
2019-02-26T01:36:57.257Z,0
2019-02-26T01:38:09.767Z,0
2019-02-26T01:39:27.775Z,0
2019-02-26T01:40:39.354Z,0
2019-02-26T01:42:01.275Z,0
2019-02-26T01:43:13.347Z,0
2019-02-26T01:44:22.791Z,0
2019-02-26T01:45:38.647Z,0
2019-02-26T01:46:50.644Z,0
2019-02-26T01:48:03.894Z,0
2019-02-26T01:49:14.043Z,0
2019-02-26T01:50:25.756Z,0
2019-02-26T01:51:37.874Z,0
2019-02-26T01:52:49.353Z,0
2019-02-26T01:54:02.525Z,0
2019-02-26T01:55:12.224Z,0
2019-02-26T01:56:24.558Z,0
2019-02-26T01:57:36.538Z,0
2019-02-26T01:58:46.242Z,0
2019-02-26T01:59:59.602Z,0
2019-02-26T02:01:09.938Z,0
2019-02-26T02:02:32.080Z,0
2019-02-26T02:03:43.984Z,0
2019-02-26T02:04:55.053Z,0
2019-02-26T02:06:06.174Z,0
2019-02-26T02:07:18.926Z,0
2019-02-26T02:08:34.306Z,0
2019-02-26T02:09:46.389Z,0
2019-02-26T02:11:06.702Z,0
2019-02-26T02:12:20.143Z,0
2019-02-26T02:13:39.140Z,0
2019-02-26T02:14:51.155Z,0
2019-02-26T02:16:06.249Z,0
2019-02-26T02:17:20.792Z,0
2019-02-26T02:18:36.529Z,0
2019-02-26T02:19:46.216Z,0
2019-02-26T02:20:56.169Z,0
2019-02-26T02:22:07.814Z,0
2019-02-26T02:23:19.320Z,0
2019-02-26T02:24:33.689Z,0
2019-02-26T02:25:50.375Z,0
2019-02-26T02:27:05.151Z,0
2019-02-26T02:28:16.671Z,0
2019-02-26T02:29:35.579Z,0
2019-02-26T02:30:48.261Z,0
2019-02-26T02:32:08.219Z,0
2019-02-26T02:33:29.509Z,0
2019-02-26T02:34:47.881Z,0
2019-02-26T02:35:57.577Z,0
2019-02-26T02:37:07.514Z,0
2019-02-26T02:38:21.953Z,0
2019-02-26T02:39:35.928Z,0
2019-02-26T02:40:56.871Z,0
2019-02-26T02:42:08.349Z,0
2019-02-26T02:43:28.116Z,0
2019-02-26T02:44:39.088Z,0
2019-02-26T02:45:58.195Z,0
2019-02-26T02:47:15.866Z,0
2019-02-26T02:48:25.565Z,0
2019-02-26T02:49:44.343Z,0
2019-02-26T02:50:54.390Z,0
2019-02-26T02:52:13.999Z,0
2019-02-26T02:53:34.222Z,0
2019-02-26T02:54:51.927Z,0
2019-02-26T02:56:03.667Z,0
2019-02-26T02:57:17.257Z,0
2019-02-26T02:58:32.736Z,0
2019-02-26T02:59:47.153Z,0
2019-02-26T03:01:05.110Z,0
2019-02-26T03:02:23.373Z,0
2019-02-26T03:03:33.309Z,0
2019-02-26T03:04:44.365Z,0
2019-02-26T03:05:55.214Z,0
2019-02-26T03:07:09.752Z,0
2019-02-26T03:08:27.281Z,0
2019-02-26T03:09:45.810Z,0
2019-02-26T03:10:55.559Z,0
2019-02-26T03:12:05.503Z,0
2019-02-26T03:13:19.964Z,0
2019-02-26T03:14:36.373Z,0
2019-02-26T03:15:53.319Z,0
2019-02-26T03:17:05.626Z,0
2019-02-26T03:18:21.718Z,0
2019-02-26T03:19:35.510Z,0
2019-02-26T03:20:51.340Z,0
2019-02-26T03:22:04.000Z,0
2019-02-26T03:23:24.886Z,0
2019-02-26T03:24:40.734Z,0
2019-02-26T03:25:57.613Z,0
2019-02-26T03:27:07.375Z,0
2019-02-26T03:28:17.047Z,0
2019-02-26T03:29:26.983Z,0
2019-02-26T03:30:50.132Z,0
2019-02-26T03:32:04.642Z,0
2019-02-26T03:33:14.489Z,0
2019-02-26T03:34:32.702Z,0
2019-02-26T03:35:42.383Z,0
2019-02-26T03:36:57.237Z,0
2019-02-26T03:38:10.706Z,0
2019-02-26T03:39:20.408Z,0
2019-02-26T03:40:38.755Z,0
2019-02-26T03:41:56.423Z,0
2019-02-26T03:43:13.757Z,0
2019-02-26T03:44:29.520Z,0
2019-02-26T03:45:40.251Z,0
2019-02-26T03:46:50.204Z,0
2019-02-26T03:48:03.445Z,0
2019-02-26T03:49:13.379Z,0
2019-02-26T03:50:26.262Z,0
2019-02-26T03:51:39.069Z,0
2019-02-26T03:52:48.958Z,0
2019-02-26T03:53:58.913Z,0
2019-02-26T03:55:18.698Z,0
2019-02-26T03:56:30.119Z,0
2019-02-26T03:57:46.861Z,0
2019-02-26T03:59:11.816Z,0
2019-02-26T04:00:27.191Z,0
2019-02-26T04:01:37.130Z,0
2019-02-26T04:02:56.446Z,0
2019-02-26T04:04:12.515Z,0
2019-02-26T04:05:22.468Z,0
2019-02-26T04:06:36.432Z,0
2019-02-26T04:07:55.014Z,0
2019-02-26T04:09:05.580Z,0
2019-02-26T04:10:15.524Z,0
2019-02-26T04:11:32.298Z,0
2019-02-26T04:12:55.140Z,0
2019-02-26T04:14:06.089Z,0
2019-02-26T04:15:15.825Z,0
2019-02-26T04:16:25.789Z,0
2019-02-26T04:17:46.444Z,0
2019-02-26T04:19:00.855Z,0
2019-02-26T04:20:14.857Z,0
2019-02-26T04:21:28.727Z,0
2019-02-26T04:22:46.043Z,0
2019-02-26T04:23:58.553Z,0
2019-02-26T04:25:16.507Z,0
2019-02-26T04:26:37.205Z,0
2019-02-26T04:27:51.344Z,0
2019-02-26T04:29:02.163Z,0
2019-02-26T04:30:20.845Z,0
2019-02-26T04:31:30.788Z,0
2019-02-26T04:32:49.039Z,0
2019-02-26T04:34:08.736Z,0
2019-02-26T04:35:18.701Z,0
2019-02-26T04:36:31.510Z,0
2019-02-26T04:37:45.534Z,0
2019-02-26T04:39:00.474Z,0
2019-02-26T04:40:18.979Z,0
2019-02-26T04:41:28.674Z,0
2019-02-26T04:42:45.982Z,0
2019-02-26T04:44:03.834Z,0
2019-02-26T04:45:18.384Z,0
2019-02-26T04:46:34.225Z,0
2019-02-26T04:47:57.480Z,0
2019-02-26T04:49:07.555Z,0
2019-02-26T04:50:20.900Z,0
2019-02-26T04:51:34.233Z,0
2019-02-26T04:52:50.792Z,0
2019-02-26T04:54:06.958Z,0
2019-02-26T04:55:16.667Z,0
2019-02-26T04:56:31.214Z,0
2019-02-26T04:57:48.983Z,0
2019-02-26T04:59:02.907Z,0
2019-02-26T05:00:17.842Z,0
2019-02-26T05:01:28.480Z,0
2019-02-26T05:02:38.176Z,0
2019-02-26T05:03:47.891Z,0
2019-02-26T05:04:57.874Z,0
2019-02-26T05:06:15.705Z,0
2019-02-26T05:07:28.717Z,0
2019-02-26T05:08:47.430Z,0
2019-02-26T05:10:06.810Z,0
2019-02-26T05:11:40.925Z,0
2019-02-26T05:12:53.208Z,0
2019-02-26T05:14:04.073Z,0
2019-02-26T05:15:26.229Z,0
2019-02-26T05:16:45.157Z,0
2019-02-26T05:17:54.909Z,0
2019-02-26T05:19:10.386Z,0
2019-02-26T05:20:26.145Z,0
2019-02-26T05:21:40.941Z,0
2019-02-26T05:22:52.014Z,0
2019-02-26T05:24:07.866Z,0
2019-02-26T05:25:26.716Z,0
2019-02-26T05:26:37.556Z,0
2019-02-26T05:27:55.778Z,0
2019-02-26T05:29:05.457Z,0
2019-02-26T05:30:25.009Z,0
2019-02-26T05:31:43.138Z,0
2019-02-26T05:33:00.638Z,0
2019-02-26T05:34:17.397Z,0
2019-02-26T05:35:32.539Z,0
2019-02-26T05:36:51.062Z,0
2019-02-26T05:38:09.953Z,0
2019-02-26T05:39:28.930Z,0
2019-02-26T05:40:45.830Z,0
2019-02-26T05:42:08.744Z,0
2019-02-26T05:43:20.316Z,0
2019-02-26T05:44:30.077Z,0
2019-02-26T05:45:44.420Z,0
2019-02-26T05:47:04.161Z,0
2019-02-26T05:48:18.531Z,0
2019-02-26T05:49:32.127Z,0
2019-02-26T05:50:49.336Z,0
2019-02-26T05:52:07.073Z,0
2019-02-26T05:53:20.694Z,0
2019-02-26T05:54:33.563Z,0
2019-02-26T05:55:48.430Z,0
2019-02-26T05:57:01.738Z,0
2019-02-26T05:58:19.182Z,0
2019-02-26T05:59:31.218Z,5
2019-02-26T06:00:42.787Z,5
2019-02-26T06:02:03.055Z,5
2019-02-26T06:03:22.634Z,5
2019-02-26T06:04:35.689Z,5
2019-02-26T06:06:00.459Z,5
2019-02-26T06:07:12.313Z,10
2019-02-26T06:08:25.429Z,10
2019-02-26T06:09:41.008Z,10
2019-02-26T06:10:50.710Z,10
2019-02-26T06:12:00.660Z,15
2019-02-26T06:13:18.204Z,15
2019-02-26T06:14:36.109Z,15
2019-02-26T06:15:47.031Z,20
2019-02-26T06:17:02.860Z,20
2019-02-26T06:18:12.559Z,25
2019-02-26T06:19:25.530Z,25
2019-02-26T06:20:41.498Z,25
2019-02-26T06:21:59.079Z,30
2019-02-26T06:23:08.791Z,30
2019-02-26T06:24:24.737Z,35
2019-02-26T06:25:35.275Z,35
2019-02-26T06:26:50.154Z,35
2019-02-26T06:28:06.993Z,40
2019-02-26T06:29:19.966Z,40
2019-02-26T06:30:32.238Z,45
2019-02-26T06:31:50.043Z,50
2019-02-26T06:33:09.626Z,50
2019-02-26T06:34:28.480Z,55
2019-02-26T06:35:45.208Z,60
2019-02-26T06:36:58.724Z,60
2019-02-26T06:38:14.489Z,65
2019-02-26T06:39:36.183Z,65
2019-02-26T06:40:54.276Z,70
2019-02-26T06:42:08.078Z,70
2019-02-26T06:43:19.312Z,70
2019-02-26T06:44:28.745Z,70
2019-02-26T06:45:45.352Z,70
2019-02-26T06:46:55.432Z,70
2019-02-26T06:48:07.511Z,70
2019-02-26T06:49:19.981Z,75
2019-02-26T06:50:31.713Z,75
2019-02-26T06:51:42.908Z,80
2019-02-26T06:52:58.009Z,80
2019-02-26T06:54:10.041Z,85
2019-02-26T06:55:19.738Z,85
2019-02-26T06:56:30.165Z,85
2019-02-26T06:57:44.608Z,85
2019-02-26T06:58:56.786Z,85
2019-02-26T07:00:11.177Z,85
2019-02-26T07:01:25.516Z,85
2019-02-26T07:02:38.321Z,85
2019-02-26T07:03:50.197Z,90
2019-02-26T07:05:00.236Z,90
2019-02-26T07:06:13.167Z,95
2019-02-26T07:07:23.997Z,95
2019-02-26T07:08:37.993Z,100
2019-02-26T07:09:50.964Z,100
2019-02-26T07:11:00.904Z,100
2019-02-26T07:12:10.869Z,100
2019-02-26T07:13:22.977Z,100
2019-02-26T07:14:39.317Z,100
2019-02-26T07:15:52.432Z,100
2019-02-26T07:17:05.779Z,100
2019-02-26T07:18:24.519Z,105
2019-02-26T07:19:41.099Z,100
2019-02-26T07:21:02.764Z,100
2019-02-26T07:22:20.704Z,105
2019-02-26T07:23:37.532Z,105
2019-02-26T07:24:55.768Z,105
2019-02-26T07:26:05.467Z,105
2019-02-26T07:27:19.214Z,105
2019-02-26T07:28:33.951Z,105
2019-02-26T07:29:55.240Z,110
2019-02-26T07:31:12.206Z,110
2019-02-26T07:32:29.037Z,110
2019-02-26T07:33:44.383Z,110
2019-02-26T07:35:00.608Z,110
2019-02-26T07:36:12.628Z,115
2019-02-26T07:37:25.225Z,115
2019-02-26T07:38:51.016Z,120
2019-02-26T07:40:03.223Z,120
2019-02-26T07:41:15.730Z,120
2019-02-26T07:42:32.670Z,125
2019-02-26T07:43:54.782Z,135
2019-02-26T07:45:14.349Z,160
2019-02-26T07:46:28.652Z,155
2019-02-26T07:47:45.043Z,165
2019-02-26T07:49:07.461Z,165
2019-02-26T07:50:22.295Z,170
2019-02-26T07:51:38.031Z,170
2019-02-26T07:52:52.013Z,170
2019-02-26T07:54:07.819Z,165
2019-02-26T07:55:22.517Z,165
2019-02-26T07:56:39.219Z,165
2019-02-26T07:57:55.908Z,170
2019-02-26T07:59:16.912Z,185
2019-02-26T08:00:26.611Z,195
2019-02-26T08:01:39.770Z,200
2019-02-26T08:02:51.949Z,200
2019-02-26T08:04:03.027Z,205
2019-02-26T08:05:12.729Z,205
2019-02-26T08:06:23.603Z,205
2019-02-26T08:07:37.755Z,205
2019-02-26T08:08:53.537Z,210
2019-02-26T08:10:03.465Z,205
2019-02-26T08:11:14.843Z,205
2019-02-26T08:12:24.972Z,210
2019-02-26T08:13:41.429Z,220
2019-02-26T08:14:56.809Z,230
2019-02-26T08:16:12.127Z,225
2019-02-26T08:17:22.113Z,225
2019-02-26T08:18:32.073Z,230
2019-02-26T08:19:51.865Z,245
2019-02-26T08:21:09.613Z,245
2019-02-26T08:22:19.327Z,265
2019-02-26T08:23:33.483Z,270
2019-02-26T08:24:45.558Z,315
2019-02-26T08:26:02.850Z,380
2019-02-26T08:27:18.447Z,400
2019-02-26T08:28:32.077Z,385
2019-02-26T08:29:45.282Z,295
2019-02-26T08:31:01.822Z,280
2019-02-26T08:32:13.707Z,300
2019-02-26T08:33:25.871Z,340
2019-02-26T08:34:39.078Z,305
2019-02-26T08:35:49.277Z,325
2019-02-26T08:36:58.963Z,295
2019-02-26T08:38:13.379Z,275
2019-02-26T08:39:24.798Z,290
2019-02-26T08:40:34.801Z,325
2019-02-26T08:41:44.510Z,375
2019-02-26T08:42:54.457Z,380
2019-02-26T08:44:06.199Z,345
2019-02-26T08:45:25.131Z,390
2019-02-26T08:46:37.338Z,390
2019-02-26T08:47:47.035Z,380
2019-02-26T08:49:07.774Z,370
2019-02-26T08:50:22.139Z,315
2019-02-26T08:51:32.117Z,285
2019-02-26T08:52:42.073Z,325
2019-02-26T08:54:00.090Z,300
2019-02-26T08:55:15.536Z,320
2019-02-26T08:56:38.610Z,320
2019-02-26T08:57:51.056Z,320
2019-02-26T08:59:05.884Z,330
2019-02-26T09:00:15.852Z,350
2019-02-26T09:01:25.829Z,315
2019-02-26T09:02:35.547Z,285
2019-02-26T09:03:53.701Z,280
2019-02-26T09:05:12.067Z,260
2019-02-26T09:06:23.571Z,255
2019-02-26T09:07:35.579Z,260
2019-02-26T09:08:49.886Z,270
2019-02-26T09:10:07.023Z,265
2019-02-26T09:11:21.349Z,260
2019-02-26T09:12:34.527Z,250
2019-02-26T09:13:49.002Z,260
2019-02-26T09:14:59.592Z,255
2019-02-26T09:16:12.772Z,260
2019-02-26T09:17:34.758Z,265
2019-02-26T09:18:48.248Z,280
2019-02-26T09:20:17.616Z,290
2019-02-26T09:21:30.662Z,300
2019-02-26T09:22:47.799Z,305
2019-02-26T09:24:10.173Z,300
2019-02-26T09:25:22.715Z,295
2019-02-26T09:26:33.225Z,295
2019-02-26T09:27:50.126Z,285
2019-02-26T09:29:04.355Z,280
2019-02-26T09:30:21.788Z,280
2019-02-26T09:31:31.524Z,275
2019-02-26T09:32:49.605Z,275
2019-02-26T09:33:59.299Z,270
2019-02-26T09:35:16.243Z,265
2019-02-26T09:36:34.239Z,245
2019-02-26T09:37:47.812Z,260
2019-02-26T09:39:02.791Z,255
2019-02-26T09:40:14.446Z,250
2019-02-26T09:41:28.750Z,250
2019-02-26T09:42:39.913Z,255
2019-02-26T09:43:53.212Z,260
2019-02-26T09:45:07.267Z,265
2019-02-26T09:46:25.640Z,270
2019-02-26T09:47:40.525Z,280
2019-02-26T09:48:54.016Z,280
2019-02-26T09:50:07.458Z,290
2019-02-26T09:51:21.610Z,295
2019-02-26T09:52:38.826Z,305
2019-02-26T09:53:52.430Z,310
2019-02-26T09:55:04.833Z,315
2019-02-26T09:56:14.574Z,315
2019-02-26T09:57:32.599Z,315
2019-02-26T09:58:50.824Z,310
2019-02-26T10:00:07.747Z,305
2019-02-26T10:01:22.858Z,295
2019-02-26T10:02:36.010Z,285
2019-02-26T10:03:48.761Z,285
2019-02-26T10:05:01.657Z,275
2019-02-26T10:06:11.727Z,265
2019-02-26T10:07:23.718Z,255
2019-02-26T10:08:37.550Z,255
2019-02-26T10:09:54.928Z,250
2019-02-26T10:11:11.472Z,255
2019-02-26T10:12:25.006Z,245
2019-02-26T10:13:39.383Z,250
2019-02-26T10:14:50.626Z,250
2019-02-26T10:16:10.842Z,255
2019-02-26T10:17:26.317Z,260
2019-02-26T10:18:40.201Z,265
2019-02-26T10:19:53.903Z,270
2019-02-26T10:21:06.605Z,280
2019-02-26T10:22:22.264Z,285
2019-02-26T10:23:38.019Z,285
2019-02-26T10:24:49.603Z,290
2019-02-26T10:26:10.596Z,300
2019-02-26T10:27:23.647Z,305
2019-02-26T10:28:40.243Z,310
2019-02-26T10:29:57.012Z,335
2019-02-26T10:31:14.604Z,350
2019-02-26T10:32:28.552Z,370
2019-02-26T10:33:46.367Z,415
2019-02-26T10:34:58.240Z,405
2019-02-26T10:36:18.369Z,440
2019-02-26T10:37:31.162Z,465
2019-02-26T10:38:45.663Z,470
2019-02-26T10:40:02.049Z,435
2019-02-26T10:41:12.444Z,395
2019-02-26T10:42:25.652Z,370
2019-02-26T10:43:35.605Z,350
2019-02-26T10:44:47.479Z,340
2019-02-26T10:46:03.045Z,335
2019-02-26T10:47:17.793Z,335
2019-02-26T10:48:32.922Z,345
2019-02-26T10:49:44.461Z,350
2019-02-26T10:50:59.187Z,350
2019-02-26T10:52:10.824Z,350
2019-02-26T10:53:30.071Z,355
2019-02-26T10:54:51.287Z,350
2019-02-26T10:56:01.023Z,355
2019-02-26T10:57:19.453Z,340
2019-02-26T10:58:29.447Z,340
2019-02-26T10:59:42.185Z,335
2019-02-26T11:01:02.332Z,340
2019-02-26T11:02:17.737Z,350
2019-02-26T11:03:35.293Z,355
2019-02-26T11:04:57.943Z,365
2019-02-26T11:06:16.743Z,375
2019-02-26T11:07:31.764Z,375
2019-02-26T11:08:44.156Z,380
2019-02-26T11:10:02.867Z,385
2019-02-26T11:11:23.520Z,390
2019-02-26T11:12:41.040Z,410
2019-02-26T11:13:59.006Z,420
2019-02-26T11:15:14.114Z,430
2019-02-26T11:16:42.493Z,420
2019-02-26T11:18:00.067Z,405
2019-02-26T11:19:17.189Z,400
2019-02-26T11:20:36.839Z,390
2019-02-26T11:21:47.412Z,380
2019-02-26T11:23:03.520Z,375
2019-02-26T11:24:17.822Z,390
2019-02-26T11:25:34.010Z,410
2019-02-26T11:26:48.765Z,430
2019-02-26T11:28:00.449Z,440
2019-02-26T11:29:12.164Z,450
2019-02-26T11:30:32.158Z,475
2019-02-26T11:31:49.685Z,485
2019-02-26T11:33:11.489Z,475
2019-02-26T11:34:22.820Z,455
2019-02-26T11:35:35.939Z,445
2019-02-26T11:36:48.222Z,460
2019-02-26T11:38:04.214Z,480
2019-02-26T11:39:21.249Z,480
2019-02-26T11:40:37.326Z,470
2019-02-26T11:41:48.250Z,455
2019-02-26T11:43:11.085Z,470
2019-02-26T11:44:32.027Z,530
2019-02-26T11:45:49.225Z,690
2019-02-26T11:47:03.570Z,1255
2019-02-26T11:48:17.590Z,1290
2019-02-26T11:49:31.033Z,840
2019-02-26T11:50:44.356Z,795
2019-02-26T11:51:54.554Z,680
2019-02-26T11:53:04.735Z,695
2019-02-26T11:54:22.364Z,770
2019-02-26T11:55:42.090Z,690
2019-02-26T11:56:57.118Z,1355
2019-02-26T11:58:15.867Z,1345
2019-02-26T11:59:28.732Z,1420
2019-02-26T12:00:52.587Z,845
2019-02-26T12:02:08.941Z,690
2019-02-26T12:03:22.685Z,665
2019-02-26T12:04:32.393Z,535
2019-02-26T12:05:48.422Z,465
2019-02-26T12:07:04.028Z,410
2019-02-26T12:08:27.232Z,375
2019-02-26T12:09:45.981Z,345
2019-02-26T12:11:03.427Z,325
2019-02-26T12:12:18.427Z,325
2019-02-26T12:13:34.059Z,330
2019-02-26T12:14:52.901Z,330
2019-02-26T12:16:02.973Z,330
2019-02-26T12:17:12.950Z,330
2019-02-26T12:18:27.089Z,330
2019-02-26T12:19:41.756Z,320
2019-02-26T12:20:55.552Z,310
2019-02-26T12:22:11.112Z,300
2019-02-26T12:25:27.372Z,260
2019-02-26T12:26:41.648Z,240
2019-02-26T12:27:55.399Z,230
2019-02-26T12:29:11.049Z,220
2019-02-26T12:30:25.758Z,220
2019-02-26T12:31:43.670Z,220
2019-02-26T12:33:00.000Z,220
2019-02-26T12:34:14.563Z,215
2019-02-26T12:35:29.647Z,215
2019-02-26T12:36:42.995Z,215
2019-02-26T12:38:14.018Z,205
2019-02-26T12:41:36.623Z,195
2019-02-26T12:42:48.686Z,195
2019-02-26T12:44:04.486Z,200
2019-02-26T12:45:22.595Z,205
2019-02-26T12:46:39.039Z,215
2019-02-26T12:47:57.735Z,220
2019-02-26T12:49:18.038Z,245
2019-02-26T12:50:42.845Z,275
2019-02-26T12:51:59.810Z,310
2019-02-26T12:53:15.774Z,350
2019-02-26T12:54:33.187Z,410
2019-02-26T12:55:49.866Z,530
2019-02-26T12:57:09.083Z,485
2019-02-26T12:58:30.077Z,430
2019-02-26T12:59:40.041Z,390
2019-02-26T13:00:51.682Z,385
2019-02-26T13:02:01.671Z,405
2019-02-26T13:03:25.110Z,425
2019-02-26T13:07:47.279Z,425
2019-02-26T13:11:04.956Z,410
2019-02-26T13:12:29.471Z,395
2019-02-26T13:13:41.559Z,380
2019-02-26T13:15:09.408Z,370
2019-02-26T13:16:19.288Z,355
2019-02-26T13:17:36.594Z,360
2019-02-26T13:18:47.842Z,370
2019-02-26T13:20:15.787Z,355
2019-02-26T13:21:26.693Z,340
2019-02-26T13:22:36.385Z,315
2019-02-26T13:23:46.361Z,290
2019-02-26T13:24:56.099Z,275
2019-02-26T13:26:14.132Z,265
2019-02-26T13:27:24.919Z,250
2019-02-26T13:28:41.685Z,235
2019-02-26T13:30:04.231Z,220
2019-02-26T13:31:26.769Z,215
2019-02-26T13:33:11.573Z,220
2019-02-26T13:36:23.677Z,220
2019-02-26T13:37:47.306Z,220
2019-02-26T13:38:58.561Z,220
2019-02-26T13:40:08.275Z,215
2019-02-26T13:43:08.500Z,210
2019-02-26T13:44:18.209Z,205
2019-02-26T13:45:28.160Z,195
2019-02-26T13:46:38.111Z,195
2019-02-26T13:47:47.802Z,200
2019-02-26T13:48:57.769Z,210
2019-02-26T13:50:07.813Z,220
2019-02-26T13:51:17.554Z,225
2019-02-26T13:52:27.578Z,220
2019-02-26T13:53:37.539Z,215
2019-02-26T13:54:47.263Z,225
2019-02-26T13:55:56.987Z,220
2019-02-26T13:57:09.062Z,220
2019-02-26T13:58:21.384Z,220
2019-02-26T13:59:31.384Z,220
2019-02-26T14:00:40.855Z,210
2019-02-26T14:01:50.857Z,195
2019-02-26T14:03:00.317Z,185
2019-02-26T14:04:10.601Z,180
2019-02-26T14:05:21.564Z,180
2019-02-26T14:06:32.027Z,175
2019-02-26T14:07:42.026Z,170
2019-02-26T14:08:52.003Z,170
2019-02-26T14:10:01.768Z,170
2019-02-26T14:11:11.731Z,170
2019-02-26T14:12:21.702Z,165
2019-02-26T14:13:31.442Z,165
2019-02-26T14:14:41.435Z,150
2019-02-26T14:15:51.416Z,130
2019-02-26T14:17:01.144Z,120
2019-02-26T14:18:11.149Z,115
2019-02-26T14:19:21.103Z,115
2019-02-26T14:20:31.095Z,110
2019-02-26T14:21:40.812Z,110
2019-02-26T14:22:50.321Z,115
2019-02-26T14:24:00.027Z,115
2019-02-26T14:25:09.749Z,120
2019-02-26T14:26:19.502Z,130
2019-02-26T14:27:29.489Z,130
2019-02-26T14:28:39.468Z,130
2019-02-26T14:29:49.447Z,125
2019-02-26T14:30:59.146Z,130
2019-02-26T14:32:09.148Z,130
2019-02-26T14:33:19.108Z,125
2019-02-26T14:34:28.962Z,115
2019-02-26T14:35:39.538Z,110
2019-02-26T14:36:49.781Z,105
2019-02-26T14:38:00.167Z,105
2019-02-26T14:39:10.112Z,110
2019-02-26T14:40:20.094Z,110
2019-02-26T14:41:29.820Z,115
2019-02-26T14:42:39.842Z,115
2019-02-26T14:43:49.828Z,115
2019-02-26T14:44:59.815Z,115
2019-02-26T14:46:09.571Z,120
2019-02-26T14:47:19.575Z,120
2019-02-26T14:48:29.308Z,125
2019-02-26T14:49:39.014Z,130
2019-02-26T14:50:48.243Z,130
2019-02-26T14:51:57.976Z,135
2019-02-26T14:53:07.941Z,135
2019-02-26T14:54:18.463Z,130
2019-02-26T14:55:30.151Z,120
2019-02-26T14:56:39.954Z,125
2019-02-26T14:57:49.674Z,125
2019-02-26T14:58:59.570Z,130
2019-02-26T15:00:09.572Z,140
2019-02-26T15:01:19.300Z,145
2019-02-26T15:02:29.019Z,150
2019-02-26T15:03:38.768Z,145
2019-02-26T15:04:48.760Z,140
2019-02-26T15:05:59.221Z,130
2019-02-26T15:07:09.619Z,120
2019-02-26T15:08:20.281Z,115
2019-02-26T15:09:30.207Z,115
2019-02-26T15:10:39.925Z,120
2019-02-26T15:11:49.896Z,135
2019-02-26T15:12:59.882Z,145
2019-02-26T15:14:09.964Z,150
2019-02-26T15:15:19.990Z,160
2019-02-26T15:16:29.981Z,165
2019-02-26T15:17:40.503Z,160
2019-02-26T15:18:50.573Z,155
2019-02-26T15:20:02.951Z,155
2019-02-26T15:21:12.956Z,165
2019-02-26T15:22:24.487Z,170
2019-02-26T15:23:34.472Z,180
2019-02-26T15:24:44.209Z,195
2019-02-26T15:25:54.184Z,195
2019-02-26T15:27:04.231Z,190
2019-02-26T15:28:14.933Z,180
2019-02-26T15:29:24.666Z,170
2019-02-26T15:30:34.634Z,165
2019-02-26T15:31:44.617Z,170
2019-02-26T15:32:54.351Z,170
2019-02-26T15:34:05.796Z,180
2019-02-26T15:35:16.473Z,185
2019-02-26T15:36:26.922Z,185
2019-02-26T15:37:37.382Z,180
2019-02-26T15:38:47.602Z,165
2019-02-26T15:39:58.530Z,145
2019-02-26T15:41:08.512Z,125
2019-02-26T15:42:19.070Z,115
2019-02-26T15:43:31.727Z,100
2019-02-26T15:44:41.699Z,95
2019-02-26T15:46:01.960Z,90
2019-02-26T15:47:14.070Z,85
2019-02-26T15:48:24.049Z,80
2019-02-26T15:49:35.758Z,75
2019-02-26T15:50:49.640Z,75
2019-02-26T15:52:01.001Z,75
2019-02-26T15:53:12.171Z,75
2019-02-26T15:54:22.333Z,75
2019-02-26T15:55:35.243Z,75
2019-02-26T15:56:45.354Z,75
2019-02-26T15:57:57.013Z,80
2019-02-26T15:59:09.558Z,80
2019-02-26T16:00:21.170Z,80
2019-02-26T16:01:30.884Z,75
2019-02-26T16:02:41.677Z,75
2019-02-26T16:03:51.676Z,75
2019-02-26T16:05:01.399Z,75
2019-02-26T16:06:11.123Z,75
2019-02-26T16:07:20.839Z,70
2019-02-26T16:08:41.213Z,65
2019-02-26T16:09:53.647Z,60
2019-02-26T16:11:03.611Z,60
2019-02-26T16:12:13.564Z,55
2019-02-26T16:13:23.292Z,50
2019-02-26T16:14:33.253Z,50
2019-02-26T16:15:42.727Z,45
2019-02-26T16:16:52.945Z,40
2019-02-26T16:18:08.483Z,35
2019-02-26T16:19:18.746Z,35
2019-02-26T16:20:28.946Z,30
2019-02-26T16:21:38.933Z,25
2019-02-26T16:22:48.934Z,25
2019-02-26T16:23:58.907Z,20
2019-02-26T16:25:12.225Z,20
2019-02-26T16:26:22.246Z,20
2019-02-26T16:27:40.046Z,20
2019-02-26T16:28:50.047Z,15
2019-02-26T16:30:00.034Z,15
2019-02-26T16:31:11.600Z,15
2019-02-26T16:32:22.497Z,10
2019-02-26T16:33:32.368Z,10
2019-02-26T16:34:42.396Z,10
2019-02-26T16:35:57.415Z,10
2019-02-26T16:37:13.951Z,5
2019-02-26T16:38:24.795Z,5
2019-02-26T16:39:35.751Z,5
2019-02-26T16:40:45.835Z,5
2019-02-26T16:41:55.745Z,5
2019-02-26T16:43:05.745Z,5
2019-02-26T16:44:15.744Z,5
2019-02-26T16:45:25.779Z,5
2019-02-26T16:46:35.797Z,5
2019-02-26T16:47:45.939Z,5
2019-02-26T16:49:00.723Z,5
2019-02-26T16:50:22.157Z,5
2019-02-26T16:51:31.674Z,5
2019-02-26T16:52:41.675Z,5
2019-02-26T16:53:51.901Z,0
2019-02-26T16:55:01.924Z,0
2019-02-26T16:56:12.481Z,0
2019-02-26T16:57:22.265Z,0
2019-02-26T16:58:35.124Z,0
2019-02-26T16:59:47.585Z,0
2019-02-26T17:00:58.933Z,0
2019-02-26T17:02:10.131Z,0
2019-02-26T17:03:20.825Z,0
2019-02-26T17:04:31.061Z,0
2019-02-26T17:05:40.856Z,0
2019-02-26T17:06:51.502Z,0
2019-02-26T17:08:03.665Z,0
2019-02-26T17:09:13.468Z,0
2019-02-26T17:10:23.471Z,0
2019-02-26T17:11:33.467Z,0
2019-02-26T17:12:43.708Z,0
2019-02-26T17:13:53.786Z,0
2019-02-26T17:15:03.515Z,0
2019-02-26T17:16:13.508Z,0
2019-02-26T17:17:23.221Z,0
2019-02-26T17:18:33.184Z,0
2019-02-26T17:19:43.252Z,0
2019-02-26T17:20:56.461Z,0
2019-02-26T17:22:11.620Z,0
2019-02-26T17:23:23.769Z,0
2019-02-26T17:24:33.879Z,0
2019-02-26T17:25:43.875Z,0
2019-02-26T17:26:53.843Z,0
2019-02-26T17:28:03.844Z,0
2019-02-26T17:29:17.766Z,0
2019-02-26T17:30:33.099Z,0
2019-02-26T17:31:43.077Z,0
2019-02-26T17:32:52.812Z,0
2019-02-26T17:34:02.549Z,0
2019-02-26T17:35:12.271Z,0
2019-02-26T17:36:21.972Z,0
2019-02-26T17:37:31.933Z,0
2019-02-26T17:38:41.661Z,0
2019-02-26T17:39:51.384Z,0
2019-02-26T17:41:01.349Z,0
2019-02-26T17:42:10.551Z,0
2019-02-26T17:43:20.278Z,0